Louisville, Georgia
Current Conditions -  °F | °C
As of 3:15 AM on Thursday 27 Nov 2014 (Local Time) from KOKZ Reporting Station
Clear Clear  
Wind Chill: 40°   Ceiling: Unl
Heat Index: 44°   Visibility: 10mi
Dew Point: 35°   Wind: 7mph
Humidity: 69%   Direction: 260°W
Pressure: 30.12"   Gusts: NA
Location:  33°N, 82.41°W
Report Text: KOKZ 270815Z AUTO 26006KT 10SM CLR 07/02 A3012 RMK AO2 T00680015
Loading
Personal Weather Stations






























Interactive Weather Map New forecast layout! Learn more

10-Day Weather Forecast

Advertisements
Track Severe Weather on mobile